^^
Your Local Weather - Clay, NY Station Historical Data
Daily Summary for February 23, 2018 Units:  Both    English   Metric
« Previous Day
Next Day »
Daily Weekly Monthly Yearly Custom
  High: Low: Average:
Temperature: 48.0 °F /  8.9 °C 29.4 °F /  -1.4 °C 36.5 °F /  2.5 °C
Dew Point: 43.8 °F /  6.6 °C 27.3 °F /  -2.6 °C 33.5 °F /  0.8 °C
Humidity: 93% 83% 89%
Wind Speed: 10.0mph /  16.1km/h - 2.9mph /  4.7km/h
Wind Gust: 15.0mph /  24.1km/h - -
Wind- - SE
Pressure: 30.65 in /  1037.8 hPa 30.04 in /  1017.2 hPa -
Precipitation: 0.08 in /  2.03 mm    
Historical Graphs
 
 
Tabular Data for February 23, 2018
Time Temperature Dew Point Pressure Wind Wind Speed Wind Gust Humidity Rainfall Rate (Hourly) solar
00:00 32.0 °F /  0 °C 30.2 °F /  -1 °C 30.65in /  1037.8hPa Calm     93% 0.00in /  0mm 0 W/m2
00:06 32.0 °F /  0 °C 30.2 °F /  -1 °C 30.65in /  1037.8hPa Calm     93% 0.00in /  0mm 0 W/m2
00:12 32.0 °F /  0 °C 30.2 °F /  -1 °C 30.65in /  1037.8hPa Calm     93% 0.00in /  0mm 0 W/m2
00:18 32.0 °F /  0 °C 30.2 °F /  -1 °C 30.64in /  1037.5hPa Calm   2.0mph /  3.2km/h 93% 0.00in /  0mm 0 W/m2
00:24 32.0 °F /  0 °C 30.2 °F /  -1 °C 30.64in /  1037.5hPa Calm   2.0mph /  3.2km/h 93% 0.00in /  0mm 0 W/m2
00:30 32.0 °F /  0 °C 30.2 °F /  -1 °C 30.64in /  1037.5hPa NE 1.0mph /  1.6km/h 3.0mph /  4.8km/h 93% 0.00in /  0mm 0 W/m2
00:36 32.0 °F /  0 °C 30.2 °F /  -1 °C 30.64in /  1037.5hPa NE 1.0mph /  1.6km/h 3.0mph /  4.8km/h 93% 0.00in /  0mm 0 W/m2
00:42 32.1 °F /  0.1 °C 30.3 °F /  -0.9 °C 30.64in /  1037.5hPa NE 1.0mph /  1.6km/h 2.0mph /  3.2km/h 93% 0.00in /  0mm 0 W/m2
00:48 32.1 °F /  0.1 °C 30.3 °F /  -0.9 °C 30.64in /  1037.5hPa NE 1.0mph /  1.6km/h 2.0mph /  3.2km/h 93% 0.00in /  0mm 0 W/m2
00:54 32.1 °F /  0.1 °C 30.3 °F /  -0.9 °C 30.64in /  1037.5hPa East 1.0mph /  1.6km/h 5.0mph /  8km/h 93% 0.00in /  0mm 0 W/m2
01:00 32.1 °F /  0.1 °C 30.3 °F /  -0.9 °C 30.64in /  1037.5hPa East 2.0mph /  3.2km/h 3.0mph /  4.8km/h 93% 0.00in /  0mm 0 W/m2
01:06 31.9 °F /  -0.1 °C 30.1 °F /  -1.1 °C 30.63in /  1037.1hPa East 2.0mph /  3.2km/h 3.0mph /  4.8km/h 93% 0.00in /  0mm 0 W/m2
01:12 31.8 °F /  -0.1 °C 30.0 °F /  -1.1 °C 30.63in /  1037.1hPa ESE 2.0mph /  3.2km/h 2.0mph /  3.2km/h 93% 0.00in /  0mm 0 W/m2
01:18 31.7 °F /  -0.2 °C 29.9 °F /  -1.2 °C 30.62in /  1036.8hPa East 2.0mph /  3.2km/h 3.0mph /  4.8km/h 93% 0.00in /  0mm 0 W/m2
01:24 31.6 °F /  -0.2 °C 29.8 °F /  -1.2 °C 30.61in /  1036.5hPa ENE 2.0mph /  3.2km/h 2.0mph /  3.2km/h 93% 0.00in /  0mm 0 W/m2
01:30 31.6 °F /  -0.2 °C 29.8 °F /  -1.2 °C 30.61in /  1036.5hPa ENE 2.0mph /  3.2km/h 4.0mph /  6.4km/h 93% 0.00in /  0mm 0 W/m2
01:36 31.4 °F /  -0.3 °C 29.6 °F /  -1.3 °C 30.61in /  1036.5hPa ESE 2.0mph /  3.2km/h 4.0mph /  6.4km/h 93% 0.00in /  0mm 0 W/m2
01:42 31.3 °F /  -0.4 °C 29.5 °F /  -1.4 °C 30.61in /  1036.5hPa East 1.0mph /  1.6km/h 2.0mph /  3.2km/h 93% 0.00in /  0mm 0 W/m2
01:48 31.3 °F /  -0.4 °C 29.5 °F /  -1.4 °C 30.61in /  1036.5hPa ENE 1.0mph /  1.6km/h 2.0mph /  3.2km/h 93% 0.00in /  0mm 0 W/m2
01:54 31.2 °F /  -0.4 °C 29.4 °F /  -1.4 °C 30.61in /  1036.5hPa ENE 2.0mph /  3.2km/h 2.0mph /  3.2km/h 93% 0.00in /  0mm 0 W/m2
02:00 31.2 °F /  -0.4 °C 29.4 °F /  -1.4 °C 30.61in /  1036.5hPa ENE 1.0mph /  1.6km/h 1.0mph /  1.6km/h 93% 0.00in /  0mm 0 W/m2
02:12 31.0 °F /  -0.6 °C 29.2 °F /  -1.6 °C 30.61in /  1036.5hPa East 2.0mph /  3.2km/h 5.0mph /  8km/h 93% 0.00in /  0mm 0 W/m2
02:18 30.9 °F /  -0.6 °C 29.1 °F /  -1.6 °C 30.61in /  1036.5hPa East 2.0mph /  3.2km/h 5.0mph /  8km/h 93% 0.00in /  0mm 0 W/m2
02:24 30.8 °F /  -0.7 °C 29.0 °F /  -1.7 °C 30.61in /  1036.5hPa NE 2.0mph /  3.2km/h 4.0mph /  6.4km/h 93% 0.00in /  0mm 0 W/m2
02:30 30.7 °F /  -0.7 °C 28.9 °F /  -1.7 °C 30.60in /  1036.1hPa NE 3.0mph /  4.8km/h 3.0mph /  4.8km/h 93% 0.00in /  0mm 0 W/m2
02:36 30.6 °F /  -0.8 °C 28.8 °F /  -1.8 °C 30.60in /  1036.1hPa ENE 3.0mph /  4.8km/h 3.0mph /  4.8km/h 93% 0.00in /  0mm 0 W/m2
02:42 30.4 °F /  -0.9 °C 28.6 °F /  -1.9 °C 30.60in /  1036.1hPa NE 3.0mph /  4.8km/h 3.0mph /  4.8km/h 93% 0.00in /  0mm 0 W/m2
02:48 30.3 °F /  -0.9 °C 28.5 °F /  -1.9 °C 30.60in /  1036.1hPa East 3.0mph /  4.8km/h 3.0mph /  4.8km/h 93% 0.00in /  0mm 0 W/m2
02:54 30.2 °F /  -1 °C 28.4 °F /  -2 °C 30.60in /  1036.1hPa ENE 3.0mph /  4.8km/h 5.0mph /  8km/h 93% 0.00in /  0mm 0 W/m2
03:00 30.2 °F /  -1 °C 28.4 °F /  -2 °C 30.60in /  1036.1hPa NNE 3.0mph /  4.8km/h 5.0mph /  8km/h 93% 0.00in /  0mm 0 W/m2
03:06 30.2 °F /  -1 °C 28.4 °F /  -2 °C 30.59in /  1035.8hPa ENE 3.0mph /  4.8km/h 9.0mph /  14.5km/h 93% 0.00in /  0mm 0 W/m2
03:12 30.2 °F /  -1 °C 28.4 °F /  -2 °C 30.59in /  1035.8hPa East 4.0mph /  6.4km/h 7.0mph /  11.3km/h 93% 0.00in /  0mm 0 W/m2
03:18 30.1 °F /  -1.1 °C 28.3 °F /  -2.1 °C 30.58in /  1035.4hPa East 4.0mph /  6.4km/h 8.0mph /  12.9km/h 93% 0.00in /  0mm 0 W/m2
03:24 30.1 °F /  -1.1 °C 28.3 °F /  -2.1 °C 30.58in /  1035.4hPa East 3.0mph /  4.8km/h 5.0mph /  8km/h 93% 0.00in /  0mm 0 W/m2
03:30 30.1 °F /  -1.1 °C 28.3 °F /  -2.1 °C 30.58in /  1035.4hPa East 3.0mph /  4.8km/h 3.0mph /  4.8km/h 93% 0.00in /  0mm 0 W/m2
03:36 30.0 °F /  -1.1 °C 28.2 °F /  -2.1 °C 30.58in /  1035.4hPa ENE 3.0mph /  4.8km/h 4.0mph /  6.4km/h 93% 0.00in /  0mm 0 W/m2
03:42 30.0 °F /  -1.1 °C 28.2 °F /  -2.1 °C 30.57in /  1035.1hPa SE 4.0mph /  6.4km/h 5.0mph /  8km/h 93% 0.00in /  0mm 0 W/m2
03:48 30.1 °F /  -1.1 °C 28.3 °F /  -2.1 °C 30.57in /  1035.1hPa SE 4.0mph /  6.4km/h 5.0mph /  8km/h 93% 0.00in /  0mm 0 W/m2
03:54 30.0 °F /  -1.1 °C 28.2 °F /  -2.1 °C 30.57in /  1035.1hPa East 3.0mph /  4.8km/h 6.0mph /  9.7km/h 93% 0.00in /  0mm 0 W/m2
04:00 30.0 °F /  -1.1 °C 28.2 °F /  -2.1 °C 30.56in /  1034.8hPa ENE 3.0mph /  4.8km/h 3.0mph /  4.8km/h 93% 0.00in /  0mm 0 W/m2
04:06 30.0 °F /  -1.1 °C 28.2 °F /  -2.1 °C 30.57in /  1035.1hPa SE 2.0mph /  3.2km/h 6.0mph /  9.7km/h 93% 0.00in /  0mm 0 W/m2
04:12 30.0 °F /  -1.1 °C 28.2 °F /  -2.1 °C 30.57in /  1035.1hPa SSE 3.0mph /  4.8km/h 7.0mph /  11.3km/h 93% 0.00in /  0mm 0 W/m2
04:18 30.0 °F /  -1.1 °C 28.2 °F /  -2.1 °C 30.57in /  1035.1hPa SE 3.0mph /  4.8km/h 7.0mph /  11.3km/h 93% 0.00in /  0mm 0 W/m2
04:24 30.0 °F /  -1.1 °C 28.2 °F /  -2.1 °C 30.57in /  1035.1hPa SE 3.0mph /  4.8km/h 5.0mph /  8km/h 93% 0.00in /  0mm 0 W/m2
04:30 30.0 °F /  -1.1 °C 28.2 °F /  -2.1 °C 30.56in /  1034.8hPa NE 3.0mph /  4.8km/h 3.0mph /  4.8km/h 93% 0.00in /  0mm 0 W/m2
04:36 30.0 °F /  -1.1 °C 28.0 °F /  -2.2 °C 30.56in /  1034.8hPa East 3.0mph /  4.8km/h 5.0mph /  8km/h 92% 0.00in /  0mm 0 W/m2
04:42 29.9 °F /  -1.2 °C 27.9 °F /  -2.3 °C 30.55in /  1034.4hPa East 3.0mph /  4.8km/h 7.0mph /  11.3km/h 92% 0.00in /  0mm 0 W/m2
04:48 29.7 °F /  -1.3 °C 27.7 °F /  -2.4 °C 30.55in /  1034.4hPa ENE 3.0mph /  4.8km/h 7.0mph /  11.3km/h 92% 0.00in /  0mm 0 W/m2
04:54 29.6 °F /  -1.3 °C 27.6 °F /  -2.4 °C 30.55in /  1034.4hPa NE 2.0mph /  3.2km/h 7.0mph /  11.3km/h 92% 0.00in /  0mm 0 W/m2
05:00 29.5 °F /  -1.4 °C 27.5 °F /  -2.5 °C 30.54in /  1034.1hPa SE 2.0mph /  3.2km/h 2.0mph /  3.2km/h 92% 0.00in /  0mm 0 W/m2
05:06 29.5 °F /  -1.4 °C 27.5 °F /  -2.5 °C 30.54in /  1034.1hPa SE 2.0mph /  3.2km/h 4.0mph /  6.4km/h 92% 0.00in /  0mm 0 W/m2
05:12 29.4 °F /  -1.4 °C 27.4 °F /  -2.6 °C 30.54in /  1034.1hPa ESE 1.0mph /  1.6km/h 2.0mph /  3.2km/h 92% 0.00in /  0mm 0 W/m2
05:18 29.4 °F /  -1.4 °C 27.4 °F /  -2.6 °C 30.54in /  1034.1hPa ENE 2.0mph /  3.2km/h 2.0mph /  3.2km/h 92% 0.00in /  0mm 0 W/m2
05:24 29.4 °F /  -1.4 °C 27.4 °F /  -2.6 °C 30.54in /  1034.1hPa SE 2.0mph /  3.2km/h 3.0mph /  4.8km/h 92% 0.00in /  0mm 0 W/m2
05:30 29.5 °F /  -1.4 °C 27.5 °F /  -2.5 °C 30.53in /  1033.7hPa ENE 3.0mph /  4.8km/h 3.0mph /  4.8km/h 92% 0.00in /  0mm 0 W/m2
05:36 29.6 °F /  -1.3 °C 27.6 °F /  -2.4 °C 30.53in /  1033.7hPa SSE 3.0mph /  4.8km/h 6.0mph /  9.7km/h 92% 0.00in /  0mm 0 W/m2
05:42 29.7 °F /  -1.3 °C 27.4 °F /  -2.6 °C 30.53in /  1033.7hPa SE 3.0mph /  4.8km/h 6.0mph /  9.7km/h 91% 0.00in /  0mm 0 W/m2
05:48 29.8 °F /  -1.2 °C 27.5 °F /  -2.5 °C 30.52in /  1033.4hPa ENE 4.0mph /  6.4km/h 6.0mph /  9.7km/h 91% 0.00in /  0mm 0 W/m2
05:54 29.9 °F /  -1.2 °C 27.6 °F /  -2.4 °C 30.52in /  1033.4hPa ENE 4.0mph /  6.4km/h 4.0mph /  6.4km/h 91% 0.00in /  0mm 0 W/m2
06:00 29.9 °F /  -1.2 °C 27.6 °F /  -2.4 °C 30.52in /  1033.4hPa East 4.0mph /  6.4km/h 4.0mph /  6.4km/h 91% 0.00in /  0mm 0 W/m2
06:06 30.0 °F /  -1.1 °C 27.7 °F /  -2.4 °C 30.52in /  1033.4hPa SE 3.0mph /  4.8km/h 4.0mph /  6.4km/h 91% 0.00in /  0mm 0 W/m2
06:12 30.0 °F /  -1.1 °C 27.4 °F /  -2.6 °C 30.51in /  1033.1hPa East 3.0mph /  4.8km/h 5.0mph /  8km/h 90% 0.00in /  0mm 0 W/m2
06:18 30.0 °F /  -1.1 °C 27.4 °F /  -2.6 °C 30.50in /  1032.7hPa East 3.0mph /  4.8km/h 8.0mph /  12.9km/h 90% 0.00in /  0mm 0 W/m2
06:24 30.0 °F /  -1.1 °C 27.4 °F /  -2.6 °C 30.50in /  1032.7hPa ENE 3.0mph /  4.8km/h 7.0mph /  11.3km/h 90% 0.00in /  0mm 0 W/m2
06:30 30.0 °F /  -1.1 °C 27.4 °F /  -2.6 °C 30.49in /  1032.4hPa ENE 4.0mph /  6.4km/h 4.0mph /  6.4km/h 90% 0.00in /  0mm 0 W/m2
06:36 30.1 °F /  -1.1 °C 27.5 °F /  -2.5 °C 30.49in /  1032.4hPa ESE 3.0mph /  4.8km/h 5.0mph /  8km/h 90% 0.00in /  0mm 0 W/m2
06:42 30.2 °F /  -1 °C 27.3 °F /  -2.6 °C 30.49in /  1032.4hPa ESE 3.0mph /  4.8km/h 4.0mph /  6.4km/h 89% 0.00in /  0mm 0 W/m2
06:48 30.3 °F /  -0.9 °C 27.4 °F /  -2.6 °C 30.49in /  1032.4hPa ESE 3.0mph /  4.8km/h 5.0mph /  8km/h 89% 0.00in /  0mm 0 W/m2
06:54 30.4 °F /  -0.9 °C 27.5 °F /  -2.5 °C 30.48in /  1032.1hPa ESE 3.0mph /  4.8km/h 4.0mph /  6.4km/h 89% 0.00in /  0mm 5 W/m2
07:00 30.5 °F /  -0.8 °C 27.6 °F /  -2.4 °C 30.48in /  1032.1hPa ESE 4.0mph /  6.4km/h 4.0mph /  6.4km/h 89% 0.00in /  0mm 5 W/m2
07:06 30.6 °F /  -0.8 °C 27.5 °F /  -2.5 °C 30.48in /  1032.1hPa East 4.0mph /  6.4km/h 6.0mph /  9.7km/h 88% 0.00in /  0mm 12 W/m2
07:12 30.6 °F /  -0.8 °C 27.5 °F /  -2.5 °C 30.48in /  1032.1hPa East 4.0mph /  6.4km/h 4.0mph /  6.4km/h 88% 0.00in /  0mm 19 W/m2
07:18 30.6 °F /  -0.8 °C 27.5 °F /  -2.5 °C 30.48in /  1032.1hPa ESE 3.0mph /  4.8km/h 4.0mph /  6.4km/h 88% 0.00in /  0mm 32 W/m2
07:24 30.7 °F /  -0.7 °C 27.6 °F /  -2.4 °C 30.48in /  1032.1hPa East 3.0mph /  4.8km/h 3.0mph /  4.8km/h 88% 0.00in /  0mm 39 W/m2
07:30 30.8 °F /  -0.7 °C 27.7 °F /  -2.4 °C 30.48in /  1032.1hPa ENE 4.0mph /  6.4km/h 4.0mph /  6.4km/h 88% 0.00in /  0mm 46 W/m2
07:36 30.9 °F /  -0.6 °C 27.8 °F /  -2.3 °C 30.48in /  1032.1hPa East 4.0mph /  6.4km/h 4.0mph /  6.4km/h 88% 0.00in /  0mm 54 W/m2
07:42 31.1 °F /  -0.5 °C 28.0 °F /  -2.2 °C 30.48in /  1032.1hPa East 3.0mph /  4.8km/h 6.0mph /  9.7km/h 88% 0.00in /  0mm 49 W/m2
07:48 31.2 °F /  -0.4 °C 27.8 °F /  -2.3 °C 30.48in /  1032.1hPa ENE 3.0mph /  4.8km/h 6.0mph /  9.7km/h 87% 0.00in /  0mm 51 W/m2
07:54 31.2 °F /  -0.4 °C 27.8 °F /  -2.3 °C 30.46in /  1031.4hPa East 3.0mph /  4.8km/h 6.0mph /  9.7km/h 87% 0.00in /  0mm 60 W/m2
08:00 31.2 °F /  -0.4 °C 27.8 °F /  -2.3 °C 30.46in /  1031.4hPa ESE 3.0mph /  4.8km/h 4.0mph /  6.4km/h 87% 0.00in /  0mm 67 W/m2
08:06 31.3 °F /  -0.4 °C 27.9 °F /  -2.3 °C 30.45in /  1031hPa ESE 3.0mph /  4.8km/h 7.0mph /  11.3km/h 87% 0.00in /  0mm 60 W/m2
08:12 31.4 °F /  -0.3 °C 28.0 °F /  -2.2 °C 30.46in /  1031.4hPa ESE 4.0mph /  6.4km/h 5.0mph /  8km/h 87% 0.00in /  0mm 60 W/m2
08:18 31.5 °F /  -0.3 °C 27.8 °F /  -2.3 °C 30.46in /  1031.4hPa East 3.0mph /  4.8km/h 6.0mph /  9.7km/h 86% 0.00in /  0mm 67 W/m2
08:24 31.6 °F /  -0.2 °C 27.9 °F /  -2.3 °C 30.45in /  1031hPa East 4.0mph /  6.4km/h 5.0mph /  8km/h 86% 0.00in /  0mm 81 W/m2
08:30 31.8 °F /  -0.1 °C 28.1 °F /  -2.2 °C 30.45in /  1031hPa East 2.0mph /  3.2km/h 5.0mph /  8km/h 86% 0.00in /  0mm 77 W/m2
08:36 31.8 °F /  -0.1 °C 28.1 °F /  -2.2 °C 30.44in /  1030.7hPa East 3.0mph /  4.8km/h 7.0mph /  11.3km/h 86% 0.00in /  0mm 88 W/m2
08:42 31.9 °F /  -0.1 °C 28.2 °F /  -2.1 °C 30.44in /  1030.7hPa ENE 4.0mph /  6.4km/h 4.0mph /  6.4km/h 86% 0.00in /  0mm 83 W/m2
08:48 31.9 °F /  -0.1 °C 28.2 °F /  -2.1 °C 30.43in /  1030.4hPa East 3.0mph /  4.8km/h 4.0mph /  6.4km/h 86% 0.00in /  0mm 83 W/m2
08:54 31.9 °F /  -0.1 °C 28.2 °F /  -2.1 °C 30.42in /  1030hPa ESE 3.0mph /  4.8km/h 6.0mph /  9.7km/h 86% 0.00in /  0mm 79 W/m2
09:00 31.9 °F /  -0.1 °C 27.9 °F /  -2.3 °C 30.41in /  1029.7hPa ESE 4.0mph /  6.4km/h 8.0mph /  12.9km/h 85% 0.00in /  0mm 88 W/m2
09:06 31.9 °F /  -0.1 °C 27.9 °F /  -2.3 °C 30.41in /  1029.7hPa ENE 3.0mph /  4.8km/h 8.0mph /  12.9km/h 85% 0.00in /  0mm 81 W/m2
09:12 31.8 °F /  -0.1 °C 27.5 °F /  -2.5 °C 30.41in /  1029.7hPa ENE 3.0mph /  4.8km/h 6.0mph /  9.7km/h 84% 0.00in /  0mm 79 W/m2
09:18 31.8 °F /  -0.1 °C 27.5 °F /  -2.5 °C 30.41in /  1029.7hPa ENE 4.0mph /  6.4km/h 6.0mph /  9.7km/h 84% 0.00in /  0mm 84 W/m2
09:24 31.9 °F /  -0.1 °C 27.6 °F /  -2.4 °C 30.40in /  1029.3hPa ENE 4.0mph /  6.4km/h 7.0mph /  11.3km/h 84% 0.00in /  0mm 86 W/m2
09:30 32.0 °F /  0 °C 27.7 °F /  -2.4 °C 30.41in /  1029.7hPa ESE 4.0mph /  6.4km/h 4.0mph /  6.4km/h 84% 0.00in /  0mm 76 W/m2
09:36 32.1 °F /  0.1 °C 27.8 °F /  -2.3 °C 30.41in /  1029.7hPa ENE 3.0mph /  4.8km/h 4.0mph /  6.4km/h 84% 0.00in /  0mm 95 W/m2
09:42 32.3 °F /  0.2 °C 28.0 °F /  -2.2 °C 30.40in /  1029.3hPa ENE 3.0mph /  4.8km/h 3.0mph /  4.8km/h 84% 0.00in /  0mm 100 W/m2
09:48 32.4 °F /  0.2 °C 28.1 °F /  -2.2 °C 30.40in /  1029.3hPa ESE 3.0mph /  4.8km/h 6.0mph /  9.7km/h 84% 0.00in /  0mm 90 W/m2
09:54 32.5 °F /  0.3 °C 28.2 °F /  -2.1 °C 30.40in /  1029.3hPa ESE 3.0mph /  4.8km/h 3.0mph /  4.8km/h 84% 0.00in /  0mm 102 W/m2
10:00 32.7 °F /  0.4 °C 28.4 °F /  -2 °C 30.40in /  1029.3hPa East 2.0mph /  3.2km/h 5.0mph /  8km/h 84% 0.00in /  0mm 93 W/m2
10:06 32.8 °F /  0.4 °C 28.5 °F /  -1.9 °C 30.40in /  1029.3hPa ENE 2.0mph /  3.2km/h 5.0mph /  8km/h 84% 0.00in /  0mm 70 W/m2
10:12 33.0 °F /  0.6 °C 28.7 °F /  -1.8 °C 30.37in /  1028.3hPa East 2.0mph /  3.2km/h 5.0mph /  8km/h 84% 0.00in /  0mm 125 W/m2
10:18 33.2 °F /  0.7 °C 28.9 °F /  -1.7 °C 30.37in /  1028.3hPa ENE 3.0mph /  4.8km/h 5.0mph /  8km/h 84% 0.00in /  0mm 84 W/m2
10:24 33.1 °F /  0.6 °C 29.1 °F /  -1.6 °C 30.36in /  1028hPa ENE 3.0mph /  4.8km/h 5.0mph /  8km/h 85% 0.00in /  0mm 69 W/m2
10:30 32.7 °F /  0.4 °C 29.0 °F /  -1.7 °C 30.36in /  1028hPa ESE 4.0mph /  6.4km/h 4.0mph /  6.4km/h 86% 0.00in /  0mm 62 W/m2
10:36 32.7 °F /  0.4 °C 29.0 °F /  -1.7 °C 30.36in /  1028hPa East 3.0mph /  4.8km/h 4.0mph /  6.4km/h 86% 0.00in /  0mm 54 W/m2
10:42 32.8 °F /  0.4 °C 29.4 °F /  -1.4 °C 30.35in /  1027.7hPa ENE 2.0mph /  3.2km/h 3.0mph /  4.8km/h 87% 0.00in /  0mm 62 W/m2
10:48 33.0 °F /  0.6 °C 29.8 °F /  -1.2 °C 30.34in /  1027.3hPa ENE 2.0mph /  3.2km/h 6.0mph /  9.7km/h 88% 0.00in /  0mm 67 W/m2
10:54 33.2 °F /  0.7 °C 30.0 °F /  -1.1 °C 30.33in /  1027hPa East 2.0mph /  3.2km/h 5.0mph /  8km/h 88% 0.00in /  0mm 74 W/m2
11:00 33.5 °F /  0.8 °C 30.6 °F /  -0.8 °C 30.32in /  1026.6hPa ENE 2.0mph /  3.2km/h 4.0mph /  6.4km/h 89% 0.00in /  0mm 84 W/m2
11:06 33.5 °F /  0.8 °C 30.6 °F /  -0.8 °C 30.32in /  1026.6hPa East 2.0mph /  3.2km/h 6.0mph /  9.7km/h 89% 0.00in /  0mm 81 W/m2
11:12 33.0 °F /  0.6 °C 30.1 °F /  -1.1 °C 30.32in /  1026.6hPa ESE 3.0mph /  4.8km/h 4.0mph /  6.4km/h 89% 0.00in /  0mm 77 W/m2
11:24 33.3 °F /  0.7 °C 30.4 °F /  -0.9 °C 30.30in /  1026hPa ENE 3.0mph /  4.8km/h 5.0mph /  8km/h 89% 0.00in /  0mm 132 W/m2
11:30 33.7 °F /  0.9 °C 30.8 °F /  -0.7 °C 30.30in /  1026hPa East 3.0mph /  4.8km/h 3.0mph /  4.8km/h 89% 0.00in /  0mm 118 W/m2
11:36 34.2 °F /  1.2 °C 31.3 °F /  -0.4 °C 30.29in /  1025.6hPa NE 3.0mph /  4.8km/h 4.0mph /  6.4km/h 89% 0.00in /  0mm 83 W/m2
11:42 34.6 °F /  1.4 °C 31.7 °F /  -0.2 °C 30.29in /  1025.6hPa NE 3.0mph /  4.8km/h 3.0mph /  4.8km/h 89% 0.00in /  0mm 79 W/m2
11:48 34.7 °F /  1.5 °C 31.5 °F /  -0.3 °C 30.29in /  1025.6hPa ENE 2.0mph /  3.2km/h 3.0mph /  4.8km/h 88% 0.00in /  0mm 81 W/m2
11:54 34.6 °F /  1.4 °C 31.4 °F /  -0.3 °C 30.29in /  1025.6hPa ENE 2.0mph /  3.2km/h 2.0mph /  3.2km/h 88% 0.00in /  0mm 76 W/m2
12:00 34.4 °F /  1.3 °C 30.9 °F /  -0.6 °C 30.29in /  1025.6hPa ENE 2.0mph /  3.2km/h 5.0mph /  8km/h 87% 0.00in /  0mm 63 W/m2
12:06 34.1 °F /  1.2 °C 30.6 °F /  -0.8 °C 30.28in /  1025.3hPa ENE 3.0mph /  4.8km/h 6.0mph /  9.7km/h 87% 0.00in /  0mm 49 W/m2
12:12 33.9 °F /  1.1 °C 30.4 °F /  -0.9 °C 30.27in /  1024.9hPa ESE 3.0mph /  4.8km/h 4.0mph /  6.4km/h 87% 0.00in /  0mm 51 W/m2
12:18 33.8 °F /  1 °C 30.3 °F /  -0.9 °C 30.27in /  1024.9hPa ENE 3.0mph /  4.8km/h 4.0mph /  6.4km/h 87% 0.00in /  0mm 39 W/m2
12:24 33.8 °F /  1 °C 30.3 °F /  -0.9 °C 30.27in /  1024.9hPa NE 2.0mph /  3.2km/h 3.0mph /  4.8km/h 87% 0.00in /  0mm 28 W/m2
12:30 34.0 °F /  1.1 °C 30.5 °F /  -0.8 °C 30.27in /  1024.9hPa NE 1.0mph /  1.6km/h 1.0mph /  1.6km/h 87% 0.00in /  0mm 32 W/m2
12:36 34.1 °F /  1.2 °C 30.6 °F /  -0.8 °C 30.26in /  1024.6hPa Calm   1.0mph /  1.6km/h 87% 0.00in /  0mm 26 W/m2
12:42 34.5 °F /  1.4 °C 31.0 °F /  -0.6 °C 30.24in /  1023.9hPa ESE 1.0mph /  1.6km/h 5.0mph /  8km/h 87% 0.00in /  0mm 28 W/m2
12:48 36.1 °F /  2.3 °C 32.9 °F /  0.5 °C 30.24in /  1023.9hPa SE 3.0mph /  4.8km/h 5.0mph /  8km/h 88% 0.00in /  0mm 25 W/m2
12:54 37.4 °F /  3 °C 34.2 °F /  1.2 °C 30.24in /  1023.9hPa SSE 3.0mph /  4.8km/h 8.0mph /  12.9km/h 88% 0.00in /  0mm 28 W/m2
13:00 39.1 °F /  3.9 °C 35.0 °F /  1.7 °C 30.24in /  1023.9hPa South 6.0mph /  9.7km/h 6.0mph /  9.7km/h 85% 0.00in /  0mm 35 W/m2
13:06 39.2 °F /  4 °C 34.5 °F /  1.4 °C 30.23in /  1023.6hPa SSE 6.0mph /  9.7km/h 7.0mph /  11.3km/h 83% 0.00in /  0mm 23 W/m2
13:12 39.1 °F /  3.9 °C 34.4 °F /  1.3 °C 30.23in /  1023.6hPa South 5.0mph /  8km/h 8.0mph /  12.9km/h 83% 0.00in /  0mm 23 W/m2
13:18 39.0 °F /  3.9 °C 34.3 °F /  1.3 °C 30.22in /  1023.2hPa SSE 7.0mph /  11.3km/h 8.0mph /  12.9km/h 83% 0.00in /  0mm 25 W/m2
13:24 39.0 °F /  3.9 °C 34.3 °F /  1.3 °C 30.22in /  1023.2hPa SE 6.0mph /  9.7km/h 7.0mph /  11.3km/h 83% 0.00in /  0mm 30 W/m2
13:30 38.8 °F /  3.8 °C 34.4 °F /  1.3 °C 30.21in /  1022.9hPa SSE 5.0mph /  8km/h 6.0mph /  9.7km/h 84% 0.00in /  0mm 32 W/m2
13:36 38.9 °F /  3.8 °C 34.5 °F /  1.4 °C 30.20in /  1022.6hPa SSE 6.0mph /  9.7km/h 7.0mph /  11.3km/h 84% 0.00in /  0mm 28 W/m2
13:42 38.9 °F /  3.8 °C 34.8 °F /  1.6 °C 30.20in /  1022.6hPa SE 6.0mph /  9.7km/h 7.0mph /  11.3km/h 85% 0.00in /  0mm 23 W/m2
13:48 38.9 °F /  3.8 °C 34.8 °F /  1.6 °C 30.20in /  1022.6hPa SSE 5.0mph /  8km/h 12.0mph /  19.3km/h 85% 0.00in /  0mm 19 W/m2
13:54 38.9 °F /  3.8 °C 34.8 °F /  1.6 °C 30.19in /  1022.2hPa SE 7.0mph /  11.3km/h 10.0mph /  16.1km/h 85% 0.00in /  0mm 30 W/m2
14:00 39.0 °F /  3.9 °C 34.9 °F /  1.6 °C 30.18in /  1021.9hPa SSE 8.0mph /  12.9km/h 9.0mph /  14.5km/h 85% 0.00in /  0mm 25 W/m2
14:06 39.0 °F /  3.9 °C 34.9 °F /  1.6 °C 30.18in /  1021.9hPa SE 9.0mph /  14.5km/h 10.0mph /  16.1km/h 85% 0.00in /  0mm 25 W/m2
14:12 39.2 °F /  4 °C 35.1 °F /  1.7 °C 30.16in /  1021.2hPa SSW 8.0mph /  12.9km/h 8.0mph /  12.9km/h 85% 0.00in /  0mm 49 W/m2
14:18 39.6 °F /  4.2 °C 35.2 °F /  1.8 °C 30.16in /  1021.2hPa South 10.0mph /  16.1km/h 12.0mph /  19.3km/h 84% 0.00in /  0mm 37 W/m2
14:24 39.7 °F /  4.3 °C 35.0 °F /  1.7 °C 30.16in /  1021.2hPa SE 9.0mph /  14.5km/h 10.0mph /  16.1km/h 83% 0.00in /  0mm 23 W/m2
14:30 39.8 °F /  4.3 °C 35.1 °F /  1.7 °C 30.16in /  1021.2hPa SSE 8.0mph /  12.9km/h 8.0mph /  12.9km/h 83% 0.00in /  0mm 28 W/m2
14:36 39.8 °F /  4.3 °C 35.1 °F /  1.7 °C 30.15in /  1020.9hPa South 7.0mph /  11.3km/h 15.0mph /  24.1km/h 83% 0.00in /  0mm 25 W/m2
14:42 39.9 °F /  4.4 °C 35.2 °F /  1.8 °C 30.15in /  1020.9hPa SE 6.0mph /  9.7km/h 6.0mph /  9.7km/h 83% 0.00in /  0mm 23 W/m2
14:48 39.7 °F /  4.3 °C 35.3 °F /  1.8 °C 30.14in /  1020.5hPa SSE 6.0mph /  9.7km/h 8.0mph /  12.9km/h 84% 0.00in /  0mm 26 W/m2
14:54 39.4 °F /  4.1 °C 35.3 °F /  1.8 °C 30.13in /  1020.2hPa SE 7.0mph /  11.3km/h 7.0mph /  11.3km/h 85% 0.12in /  3.05mm 37 W/m2
15:00 39.3 °F /  4.1 °C 35.5 °F /  1.9 °C 30.13in /  1020.2hPa SW 5.0mph /  8km/h 5.0mph /  8km/h 86% 0.06in /  1.52mm 35 W/m2
15:06 39.5 °F /  4.2 °C 36.0 °F /  2.2 °C 30.12in /  1019.9hPa SE 6.0mph /  9.7km/h 12.0mph /  19.3km/h 87% 0.04in /  1.02mm 39 W/m2
15:12 39.6 °F /  4.2 °C 35.8 °F /  2.1 °C 30.13in /  1020.2hPa SSE 8.0mph /  12.9km/h 8.0mph /  12.9km/h 86% 0.00in /  0mm 25 W/m2
15:18 39.6 °F /  4.2 °C 35.5 °F /  1.9 °C 30.13in /  1020.2hPa SSE 7.0mph /  11.3km/h 10.0mph /  16.1km/h 85% 0.00in /  0mm 16 W/m2
15:24 39.7 °F /  4.3 °C 35.6 °F /  2 °C 30.13in /  1020.2hPa SW 8.0mph /  12.9km/h 9.0mph /  14.5km/h 85% 0.00in /  0mm 25 W/m2
15:30 39.8 °F /  4.3 °C 35.7 °F /  2.1 °C 30.13in /  1020.2hPa SSE 7.0mph /  11.3km/h 7.0mph /  11.3km/h 85% 0.00in /  0mm 21 W/m2
15:36 39.8 °F /  4.3 °C 35.7 °F /  2.1 °C 30.12in /  1019.9hPa SE 6.0mph /  9.7km/h 7.0mph /  11.3km/h 85% 0.00in /  0mm 19 W/m2
15:42 39.8 °F /  4.3 °C 35.7 °F /  2.1 °C 30.12in /  1019.9hPa SE 7.0mph /  11.3km/h 8.0mph /  12.9km/h 85% 0.00in /  0mm 18 W/m2
15:48 39.8 °F /  4.3 °C 35.7 °F /  2.1 °C 30.11in /  1019.5hPa SE 6.0mph /  9.7km/h 8.0mph /  12.9km/h 85% 0.00in /  0mm 32 W/m2
15:54 39.8 °F /  4.3 °C 35.7 °F /  2.1 °C 30.11in /  1019.5hPa SSE 6.0mph /  9.7km/h 7.0mph /  11.3km/h 85% 0.00in /  0mm 30 W/m2
16:00 39.8 °F /  4.3 °C 35.7 °F /  2.1 °C 30.12in /  1019.9hPa SSE 5.0mph /  8km/h 6.0mph /  9.7km/h 85% 0.00in /  0mm 21 W/m2
16:06 39.8 °F /  4.3 °C 36.0 °F /  2.2 °C 30.11in /  1019.5hPa SE 4.0mph /  6.4km/h 6.0mph /  9.7km/h 86% 0.00in /  0mm 18 W/m2
16:12 39.8 °F /  4.3 °C 36.0 °F /  2.2 °C 30.10in /  1019.2hPa South 3.0mph /  4.8km/h 4.0mph /  6.4km/h 86% 0.00in /  0mm 11 W/m2
16:18 39.9 °F /  4.4 °C 36.1 °F /  2.3 °C 30.10in /  1019.2hPa South 3.0mph /  4.8km/h 6.0mph /  9.7km/h 86% 0.00in /  0mm 14 W/m2
16:24 40.0 °F /  4.4 °C 36.2 °F /  2.3 °C 30.10in /  1019.2hPa SE 4.0mph /  6.4km/h 4.0mph /  6.4km/h 86% 0.00in /  0mm 14 W/m2
16:30 40.1 °F /  4.5 °C 36.2 °F /  2.3 °C 30.09in /  1018.8hPa ESE 3.0mph /  4.8km/h 5.0mph /  8km/h 86% 0.00in /  0mm 19 W/m2
16:36 40.3 °F /  4.6 °C 36.1 °F /  2.3 °C 30.09in /  1018.8hPa SE 4.0mph /  6.4km/h 5.0mph /  8km/h 85% 0.00in /  0mm 12 W/m2
16:42 40.4 °F /  4.7 °C 36.2 °F /  2.3 °C 30.08in /  1018.5hPa SSE 4.0mph /  6.4km/h 4.0mph /  6.4km/h 85% 0.00in /  0mm 9 W/m2
16:48 40.6 °F /  4.8 °C 36.1 °F /  2.3 °C 30.09in /  1018.8hPa SSE 3.0mph /  4.8km/h 4.0mph /  6.4km/h 84% 0.00in /  0mm 5 W/m2
16:54 40.7 °F /  4.8 °C 36.5 °F /  2.5 °C 30.08in /  1018.5hPa SE 3.0mph /  4.8km/h 4.0mph /  6.4km/h 85% 0.00in /  0mm 7 W/m2
17:00 40.7 °F /  4.8 °C 36.5 °F /  2.5 °C 30.08in /  1018.5hPa ESE 3.0mph /  4.8km/h 3.0mph /  4.8km/h 85% 0.06in /  1.52mm 7 W/m2
17:06 40.6 °F /  4.8 °C 36.7 °F /  2.6 °C 30.07in /  1018.2hPa ESE 2.0mph /  3.2km/h 3.0mph /  4.8km/h 86% 0.06in /  1.52mm 0 W/m2
17:12 40.3 °F /  4.6 °C 36.7 °F /  2.6 °C 30.07in /  1018.2hPa ESE 1.0mph /  1.6km/h 2.0mph /  3.2km/h 87% 0.05in /  1.27mm 0 W/m2
17:18 40.2 °F /  4.6 °C 36.6 °F /  2.6 °C 30.07in /  1018.2hPa ESE 1.0mph /  1.6km/h 2.0mph /  3.2km/h 87% 0.00in /  0mm 0 W/m2
17:24 40.1 °F /  4.5 °C 36.8 °F /  2.7 °C 30.07in /  1018.2hPa ESE 1.0mph /  1.6km/h 2.0mph /  3.2km/h 88% 0.00in /  0mm 0 W/m2
17:30 40.0 °F /  4.4 °C 36.7 °F /  2.6 °C 30.08in /  1018.5hPa ESE 1.0mph /  1.6km/h 3.0mph /  4.8km/h 88% 0.00in /  0mm 0 W/m2
17:36 39.9 °F /  4.4 °C 36.9 °F /  2.7 °C 30.08in /  1018.5hPa Calm   3.0mph /  4.8km/h 89% 0.00in /  0mm 0 W/m2
17:42 39.7 °F /  4.3 °C 36.7 °F /  2.6 °C 30.08in /  1018.5hPa Calm   1.0mph /  1.6km/h 89% 0.00in /  0mm 0 W/m2
17:48 39.8 °F /  4.3 °C 37.1 °F /  2.8 °C 30.07in /  1018.2hPa ESE 1.0mph /  1.6km/h 2.0mph /  3.2km/h 90% 0.00in /  0mm 0 W/m2
17:54 40.0 °F /  4.4 °C 37.3 °F /  2.9 °C 30.08in /  1018.5hPa ESE 1.0mph /  1.6km/h 1.0mph /  1.6km/h 90% 0.00in /  0mm 0 W/m2
18:00 40.0 °F /  4.4 °C 37.3 °F /  2.9 °C 30.07in /  1018.2hPa Calm   2.0mph /  3.2km/h 90% 0.00in /  0mm 0 W/m2
18:06 40.1 °F /  4.5 °C 37.4 °F /  3 °C 30.07in /  1018.2hPa SE 1.0mph /  1.6km/h 2.0mph /  3.2km/h 90% 0.00in /  0mm 0 W/m2
18:12 40.2 °F /  4.6 °C 37.5 °F /  3.1 °C 30.07in /  1018.2hPa SE 1.0mph /  1.6km/h 2.0mph /  3.2km/h 90% 0.00in /  0mm 0 W/m2
18:18 40.4 °F /  4.7 °C 38.0 °F /  3.3 °C 30.07in /  1018.2hPa SE 1.0mph /  1.6km/h 3.0mph /  4.8km/h 91% 0.00in /  0mm 0 W/m2
18:24 40.5 °F /  4.7 °C 38.1 °F /  3.4 °C 30.07in /  1018.2hPa SE 1.0mph /  1.6km/h 3.0mph /  4.8km/h 91% 0.00in /  0mm 0 W/m2
18:30 40.6 °F /  4.8 °C 38.2 °F /  3.4 °C 30.07in /  1018.2hPa Calm   2.0mph /  3.2km/h 91% 0.00in /  0mm 0 W/m2
18:36 41.0 °F /  5 °C 38.6 °F /  3.7 °C 30.07in /  1018.2hPa SE 1.0mph /  1.6km/h 2.0mph /  3.2km/h 91% 0.00in /  0mm 0 W/m2
18:42 41.4 °F /  5.2 °C 39.0 °F /  3.9 °C 30.07in /  1018.2hPa SSE 1.0mph /  1.6km/h 2.0mph /  3.2km/h 91% 0.00in /  0mm 0 W/m2
18:48 41.4 °F /  5.2 °C 39.0 °F /  3.9 °C 30.07in /  1018.2hPa Calm   2.0mph /  3.2km/h 91% 0.00in /  0mm 0 W/m2
18:54 41.1 °F /  5.1 °C 38.7 °F /  3.7 °C 30.06in /  1017.8hPa Calm   1.0mph /  1.6km/h 91% 0.00in /  0mm 0 W/m2
19:00 41.7 °F /  5.4 °C 39.3 °F /  4.1 °C 30.06in /  1017.8hPa SSE 1.0mph /  1.6km/h 1.0mph /  1.6km/h 91% 0.00in /  0mm 0 W/m2
19:06 41.7 °F /  5.4 °C 39.3 °F /  4.1 °C 30.06in /  1017.8hPa SSW 1.0mph /  1.6km/h 3.0mph /  4.8km/h 91% 0.00in /  0mm 0 W/m2
19:12 43.2 °F /  6.2 °C 41.0 °F /  5 °C 30.06in /  1017.8hPa SSW 1.0mph /  1.6km/h 2.0mph /  3.2km/h 92% 0.00in /  0mm 0 W/m2
19:18 42.0 °F /  5.6 °C 39.6 °F /  4.2 °C 30.07in /  1018.2hPa SSW 1.0mph /  1.6km/h 2.0mph /  3.2km/h 91% 0.00in /  0mm 0 W/m2
19:24 41.6 °F /  5.3 °C 39.2 °F /  4 °C 30.05in /  1017.5hPa Calm   1.0mph /  1.6km/h 91% 0.00in /  0mm 0 W/m2
19:30 41.5 °F /  5.3 °C 39.1 °F /  3.9 °C 30.06in /  1017.8hPa Calm     91% 0.00in /  0mm 0 W/m2
19:36 41.3 °F /  5.2 °C 38.9 °F /  3.8 °C 30.06in /  1017.8hPa Calm   1.0mph /  1.6km/h 91% 0.00in /  0mm 0 W/m2
19:42 41.5 °F /  5.3 °C 39.1 °F /  3.9 °C 30.06in /  1017.8hPa Calm   2.0mph /  3.2km/h 91% 0.00in /  0mm 0 W/m2
19:48 42.1 °F /  5.6 °C 39.7 °F /  4.3 °C 30.05in /  1017.5hPa Calm   2.0mph /  3.2km/h 91% 0.00in /  0mm 0 W/m2
19:54 42.3 °F /  5.7 °C 39.9 °F /  4.4 °C 30.05in /  1017.5hPa Calm   2.0mph /  3.2km/h 91% 0.00in /  0mm 0 W/m2
20:00 43.7 °F /  6.5 °C 41.5 °F /  5.3 °C 30.06in /  1017.8hPa SSW 1.0mph /  1.6km/h 3.0mph /  4.8km/h 92% 0.00in /  0mm 0 W/m2
20:06 44.9 °F /  7.2 °C 42.7 °F /  5.9 °C 30.06in /  1017.8hPa SE 2.0mph /  3.2km/h 3.0mph /  4.8km/h 92% 0.00in /  0mm 0 W/m2
20:12 45.4 °F /  7.4 °C 42.9 °F /  6.1 °C 30.05in /  1017.5hPa South 2.0mph /  3.2km/h 2.0mph /  3.2km/h 91% 0.00in /  0mm 0 W/m2
20:18 45.5 °F /  7.5 °C 43.0 °F /  6.1 °C 30.05in /  1017.5hPa SSE 1.0mph /  1.6km/h 3.0mph /  4.8km/h 91% 0.00in /  0mm 0 W/m2
20:24 45.7 °F /  7.6 °C 42.9 °F /  6.1 °C 30.05in /  1017.5hPa South 2.0mph /  3.2km/h 3.0mph /  4.8km/h 90% 0.00in /  0mm 0 W/m2
20:30 45.9 °F /  7.7 °C 42.8 °F /  6 °C 30.05in /  1017.5hPa South 2.0mph /  3.2km/h 2.0mph /  3.2km/h 89% 0.00in /  0mm 0 W/m2
20:36 45.9 °F /  7.7 °C 42.8 °F /  6 °C 30.05in /  1017.5hPa South 2.0mph /  3.2km/h 3.0mph /  4.8km/h 89% 0.00in /  0mm 0 W/m2
20:42 46.4 °F /  8 °C 43.3 °F /  6.3 °C 30.05in /  1017.5hPa SSW 2.0mph /  3.2km/h 3.0mph /  4.8km/h 89% 0.00in /  0mm 0 W/m2
20:48 46.9 °F /  8.3 °C 43.5 °F /  6.4 °C 30.05in /  1017.5hPa SSW 2.0mph /  3.2km/h 4.0mph /  6.4km/h 88% 0.00in /  0mm 0 W/m2
20:54 47.2 °F /  8.4 °C 43.8 °F /  6.6 °C 30.05in /  1017.5hPa SSW 3.0mph /  4.8km/h 7.0mph /  11.3km/h 88% 0.00in /  0mm 0 W/m2
21:00 47.4 °F /  8.6 °C 43.7 °F /  6.5 °C 30.05in /  1017.5hPa SW 3.0mph /  4.8km/h 3.0mph /  4.8km/h 87% 0.00in /  0mm 0 W/m2
21:06 47.6 °F /  8.7 °C 43.6 °F /  6.4 °C 30.05in /  1017.5hPa SSW 2.0mph /  3.2km/h 7.0mph /  11.3km/h 86% 0.00in /  0mm 0 W/m2
21:12 47.8 °F /  8.8 °C 43.8 °F /  6.6 °C 30.04in /  1017.2hPa SW 4.0mph /  6.4km/h 5.0mph /  8km/h 86% 0.00in /  0mm 0 W/m2
21:18 47.8 °F /  8.8 °C 43.5 °F /  6.4 °C 30.04in /  1017.2hPa SW 3.0mph /  4.8km/h 5.0mph /  8km/h 85% 0.00in /  0mm 0 W/m2
21:24 47.9 °F /  8.8 °C 43.6 °F /  6.4 °C 30.04in /  1017.2hPa SW 4.0mph /  6.4km/h 7.0mph /  11.3km/h 85% 0.00in /  0mm 0 W/m2
21:30 47.9 °F /  8.8 °C 43.6 °F /  6.4 °C 30.04in /  1017.2hPa SSW 4.0mph /  6.4km/h 5.0mph /  8km/h 85% 0.00in /  0mm 0 W/m2
21:36 47.9 °F /  8.8 °C 43.6 °F /  6.4 °C 30.04in /  1017.2hPa SSW 3.0mph /  4.8km/h 5.0mph /  8km/h 85% 0.00in /  0mm 0 W/m2
21:42 47.8 °F /  8.8 °C 43.5 °F /  6.4 °C 30.05in /  1017.5hPa SSW 2.0mph /  3.2km/h 3.0mph /  4.8km/h 85% 0.00in /  0mm 0 W/m2
21:48 48.0 °F /  8.9 °C 43.7 °F /  6.5 °C 30.05in /  1017.5hPa SSW 3.0mph /  4.8km/h 4.0mph /  6.4km/h 85% 0.00in /  0mm 0 W/m2
21:54 48.0 °F /  8.9 °C 43.7 °F /  6.5 °C 30.05in /  1017.5hPa SW 3.0mph /  4.8km/h 3.0mph /  4.8km/h 85% 0.00in /  0mm 0 W/m2
22:00 47.9 °F /  8.8 °C 43.6 °F /  6.4 °C 30.05in /  1017.5hPa South 2.0mph /  3.2km/h 3.0mph /  4.8km/h 85% 0.00in /  0mm 0 W/m2
22:06 48.0 °F /  8.9 °C 43.7 °F /  6.5 °C 30.05in /  1017.5hPa SW 3.0mph /  4.8km/h 4.0mph /  6.4km/h 85% 0.00in /  0mm 0 W/m2
22:12 48.0 °F /  8.9 °C 43.7 °F /  6.5 °C 30.05in /  1017.5hPa West 3.0mph /  4.8km/h 3.0mph /  4.8km/h 85% 0.00in /  0mm 0 W/m2
22:18 48.0 °F /  8.9 °C 43.4 °F /  6.3 °C 30.05in /  1017.5hPa WSW 3.0mph /  4.8km/h 3.0mph /  4.8km/h 84% 0.00in /  0mm 0 W/m2
22:24 47.8 °F /  8.8 °C 43.5 °F /  6.4 °C 30.06in /  1017.8hPa WSW 2.0mph /  3.2km/h 3.0mph /  4.8km/h 85% 0.00in /  0mm 0 W/m2
22:30 47.6 °F /  8.7 °C 43.3 °F /  6.3 °C 30.07in /  1018.2hPa WSW 1.0mph /  1.6km/h 1.0mph /  1.6km/h 85% 0.00in /  0mm 0 W/m2
22:36 47.3 °F /  8.5 °C 43.3 °F /  6.3 °C 30.07in /  1018.2hPa NW 1.0mph /  1.6km/h 3.0mph /  4.8km/h 86% 0.00in /  0mm 0 W/m2
22:42 46.9 °F /  8.3 °C 43.2 °F /  6.2 °C 30.07in /  1018.2hPa NW 2.0mph /  3.2km/h 3.0mph /  4.8km/h 87% 0.00in /  0mm 0 W/m2
22:48 46.4 °F /  8 °C 42.7 °F /  5.9 °C 30.08in /  1018.5hPa NNW 2.0mph /  3.2km/h 3.0mph /  4.8km/h 87% 0.00in /  0mm 0 W/m2
22:54 45.8 °F /  7.7 °C 42.4 °F /  5.8 °C 30.08in /  1018.5hPa NW 4.0mph /  6.4km/h 5.0mph /  8km/h 88% 0.00in /  0mm 0 W/m2
23:00 45.3 °F /  7.4 °C 42.2 °F /  5.7 °C 30.08in /  1018.5hPa NW 3.0mph /  4.8km/h 3.0mph /  4.8km/h 89% 0.00in /  0mm 0 W/m2
23:06 44.9 °F /  7.2 °C 41.9 °F /  5.5 °C 30.08in /  1018.5hPa NW 2.0mph /  3.2km/h 3.0mph /  4.8km/h 89% 0.00in /  0mm 0 W/m2
23:12 44.6 °F /  7 °C 41.8 °F /  5.4 °C 30.08in /  1018.5hPa NW 2.0mph /  3.2km/h 3.0mph /  4.8km/h 90% 0.00in /  0mm 0 W/m2
23:18 44.5 °F /  6.9 °C 41.7 °F /  5.4 °C 30.08in /  1018.5hPa NW 2.0mph /  3.2km/h 3.0mph /  4.8km/h 90% 0.00in /  0mm 0 W/m2
23:24 44.3 °F /  6.8 °C 41.6 °F /  5.3 °C 30.09in /  1018.8hPa NW 1.0mph /  1.6km/h 2.0mph /  3.2km/h 90% 0.00in /  0mm 0 W/m2
23:30 44.1 °F /  6.7 °C 41.6 °F /  5.3 °C 30.09in /  1018.8hPa NW 2.0mph /  3.2km/h 2.0mph /  3.2km/h 91% 0.00in /  0mm 0 W/m2
23:36 44.0 °F /  6.7 °C 41.5 °F /  5.3 °C 30.09in /  1018.8hPa NW 1.0mph /  1.6km/h 2.0mph /  3.2km/h 91% 0.00in /  0mm 0 W/m2
23:42 43.9 °F /  6.6 °C 41.4 °F /  5.2 °C 30.10in /  1019.2hPa Calm   1.0mph /  1.6km/h 91% 0.00in /  0mm 0 W/m2
23:48 43.8 °F /  6.6 °C 41.3 °F /  5.2 °C 30.10in /  1019.2hPa NW 1.0mph /  1.6km/h 2.0mph /  3.2km/h 91% 0.00in /  0mm 0 W/m2
23:54 43.9 °F /  6.6 °C 41.7 °F /  5.4 °C 30.10in /  1019.2hPa WSW 2.0mph /  3.2km/h 3.0mph /  4.8km/h 92% 0.00in /  0mm 0 W/m2
Country Meadow, Clay, NY, USA
Compliments of Weather Underground - 2 mb